Terminal Aerodrome Forecast
Issued by NWS St Louis, MO

Home | Current Version | Previous Version | Text Only | Print | Product List | Glossary On
Versions: 1 2 3 4 5 6 7 8 9 10 11 12 13 14 15 16 17 18 19 20 21 22 23 24 25 26
000
FTUS43 KLSX 201126
TAFCOU
TAF
KCOU 201126Z 2012/2112 15012KT P6SM BKN120
     FM201700 16015G22KT P6SM VCSH BKN060
     FM202100 18014G23KT 6SM -SHRA OVC040
      TEMPO 2022/2102 4SM -SHRA
     FM210500 22007KT P6SM VCSH OVC060
     FM210900 29007KT 5SM BR BKN050=

USA.gov is the U.S. government's official web portal to all federal, state and local government web resources and services.